Time;durP1;ratioP1;P1;durP2;ratioP2;P2;SDS_P1;SDS_P2;PMS_P1;PMS_P2;Temp;Humidity;BMP_temperature;BMP_pressure;BME280_temperature;BME280_humidity;BME280_pressure;Samples;Min_cycle;Max_cycle;Signal;HPM_P1;HPM_P2
2021/06/02 00:02:10;;;;;;;10.23;5.65;;;;;;;;;;5009516;28;20030;-68
2021/06/02 00:04:43;;;;;;;9.35;5.28;;;;;;;;;;5006774;28;20076;-69
2021/06/02 00:07:11;;;;;;;10.50;5.53;;;;;;;;;;5007628;28;20105;-68
2021/06/02 00:09:39;;;;;;;19.33;6.13;;;;;;;;;;5007980;28;20034;-68
2021/06/02 00:12:08;;;;;;;11.20;5.38;;;;;;;;;;5009527;28;20095;-68
2021/06/02 00:14:35;;;;;;;8.30;5.05;;;;;;;;;;5006812;28;20034;-69
2021/06/02 00:17:02;;;;;;;9.38;5.80;;;;;;;;;;5004867;28;20031;-69
2021/06/02 00:19:29;;;;;;;10.63;4.78;;;;;;;;;;5009278;28;20401;-68
2021/06/02 00:21:58;;;;;;;12.82;6.75;;;;;;;;;;5007995;28;20022;-68
2021/06/02 00:24:25;;;;;;;12.68;6.05;;;;;;;;;;5010174;28;20025;-68
2021/06/02 00:26:54;;;;;;;9.43;5.28;;;;;;;;;;5011437;28;20516;-68
2021/06/02 00:29:21;;;;;;;9.00;5.40;;;;;;;;;;5007682;28;20026;-68
2021/06/02 00:31:49;;;;;;;11.43;6.18;;;;;;;;;;5009330;28;20032;-68
2021/06/02 00:34:16;;;;;;;10.38;5.57;;;;;;;;;;5009512;28;20025;-69
2021/06/02 00:36:44;;;;;;;17.55;6.13;;;;;;;;;;5010700;28;20434;-69
2021/06/02 00:39:12;;;;;;;13.85;6.13;;;;;;;;;;5010392;28;20474;-68
2021/06/02 00:41:40;;;;;;;11.05;6.30;;;;;;;;;;5009823;28;20032;-68
2021/06/02 00:44:08;;;;;;;17.10;7.03;;;;;;;;;;5012149;28;20056;-69
2021/06/02 00:46:38;;;;;;;20.55;6.75;;;;;;;;;;5010660;28;20084;-68
2021/06/02 00:49:06;;;;;;;22.10;7.03;;;;;;;;;;5007647;28;20486;-69
2021/06/02 00:51:34;;;;;;;15.02;6.55;;;;;;;;;;5007031;28;20520;-69
2021/06/02 00:54:01;;;;;;;8.30;5.70;;;;;;;;;;5009073;28;20552;-68
2021/06/02 00:56:46;;;;;;;14.30;6.50;;;;;;;;;;5006924;28;20113;-69
2021/06/02 00:59:14;;;;;;;13.23;7.05;;;;;;;;;;5005610;28;20048;-68
2021/06/02 01:01:41;;;;;;;15.38;6.53;;;;;;;;;;5008557;28;20049;-68
2021/06/02 01:04:08;;;;;;;12.13;5.85;;;;;;;;;;5011706;28;20029;-69
2021/06/02 01:06:35;;;;;;;11.52;7.20;;;;;;;;;;5008588;28;20037;-68
2021/06/02 01:09:05;;;;;;;14.80;6.25;;;;;;;;;;5009156;28;20018;-69
2021/06/02 01:11:32;;;;;;;11.38;5.93;;;;;;;;;;5008156;28;20034;-68
2021/06/02 01:14:00;;;;;;;12.38;6.25;;;;;;;;;;5007943;28;20068;-68
2021/06/02 01:16:31;;;;;;;13.02;6.20;;;;;;;;;;5007402;28;20483;-69
2021/06/02 01:18:59;;;;;;;10.93;5.68;;;;;;;;;;5007071;28;20038;-67
2021/06/02 01:21:28;;;;;;;11.30;5.38;;;;;;;;;;5008201;28;20034;-68
2021/06/02 01:23:58;;;;;;;13.40;6.32;;;;;;;;;;5009442;28;20026;-69
2021/06/02 01:26:26;;;;;;;13.88;6.30;;;;;;;;;;5004683;28;20114;-69
2021/06/02 01:28:54;;;;;;;12.60;5.50;;;;;;;;;;5007675;28;20439;-69
2021/06/02 01:31:36;;;;;;;12.73;6.07;;;;;;;;;;5005819;28;20092;-69
2021/06/02 01:34:06;;;;;;;10.93;5.43;;;;;;;;;;5000499;28;20018;-69
2021/06/02 01:36:52;;;;;;;13.55;5.90;;;;;;;;;;5007768;28;20482;-69
2021/06/02 01:39:32;;;;;;;11.50;4.90;;;;;;;;;;5008481;28;20391;-69
2021/06/02 01:42:17;;;;;;;16.52;5.68;;;;;;;;;;5007624;28;20434;-68
2021/06/02 01:45:02;;;;;;;10.95;5.15;;;;;;;;;;5004681;28;20081;-68
2021/06/02 01:47:49;;;;;;;8.40;3.30;;;;;;;;;;5007712;28;20035;-69
2021/06/02 01:50:34;;;;;;;8.57;3.25;;;;;;;;;;5010348;28;20036;-69
2021/06/02 01:53:01;;;;;;;8.10;3.60;;;;;;;;;;5015685;28;20041;-69
2021/06/02 01:55:34;;;;;;;5.40;2.65;;;;;;;;;;5011396;28;20024;-69
2021/06/02 01:58:07;;;;;;;7.88;2.83;;;;;;;;;;5015695;28;20028;-69
2021/06/02 02:00:43;;;;;;;9.70;2.53;;;;;;;;;;5011845;28;20026;-68
2021/06/02 02:03:29;;;;;;;5.07;2.22;;;;;;;;;;5012410;28;20088;-69
2021/06/02 02:06:14;;;;;;;4.93;1.90;;;;;;;;;;5011301;28;20022;-69
2021/06/02 02:08:59;;;;;;;4.50;1.90;;;;;;;;;;5009895;28;20040;-69
2021/06/02 02:11:44;;;;;;;6.30;2.33;;;;;;;;;;5008979;28;20022;-69
2021/06/02 02:14:14;;;;;;;6.88;1.60;;;;;;;;;;5002671;28;20478;-69
2021/06/02 02:16:52;;;;;;;7.70;2.65;;;;;;;;;;5013539;28;20483;-68
2021/06/02 02:19:57;;;;;;;5.45;2.72;;;;;;;;;;5013241;28;20034;-69
2021/06/02 02:22:23;;;;;;;;;;;;;;;;;;4976346;28;20050;-69
2021/06/02 02:25:16;;;;;;;8.55;2.00;;;;;;;;;;4990122;28;20298;-69
2021/06/02 02:27:46;;;;;;;7.20;2.25;;;;;;;;;;4987479;28;20037;-69
2021/06/02 02:30:13;;;;;;;5.22;1.92;;;;;;;;;;5000237;28;20026;-69
2021/06/02 02:32:40;;;;;;;4.40;1.50;;;;;;;;;;5015047;28;20030;-69
2021/06/02 02:35:16;;;;;;;5.75;1.80;;;;;;;;;;5013837;28;20482;-69
2021/06/02 02:37:43;;;;;;;6.05;2.58;;;;;;;;;;5015009;28;20049;-69
2021/06/02 02:40:10;;;;;;;5.00;1.48;;;;;;;;;;5007150;28;20038;-69
2021/06/02 02:42:53;;;;;;;6.30;2.03;;;;;;;;;;5003740;28;20022;-70
2021/06/02 02:45:20;;;;;;;4.85;1.38;;;;;;;;;;5014648;28;20068;-69
2021/06/02 02:48:06;;;;;;;6.25;1.73;;;;;;;;;;5013870;28;20030;-69
2021/06/02 02:50:37;;;;;;;3.20;1.27;;;;;;;;;;5009789;28;20034;-69
2021/06/02 02:53:16;;;;;;;6.40;1.83;;;;;;;;;;5014983;28;20044;-68
2021/06/02 02:55:43;;;;;;;3.75;1.50;;;;;;;;;;5011567;28;20026;-68
2021/06/02 02:58:22;;;;;;;3.33;1.38;;;;;;;;;;5015075;28;20056;-68
2021/06/02 03:00:57;;;;;;;3.33;0.98;;;;;;;;;;5012504;28;20113;-68
2021/06/02 03:03:24;;;;;;;4.03;1.17;;;;;;;;;;5014205;28;20084;-68
2021/06/02 03:06:12;;;;;;;7.43;1.10;;;;;;;;;;5012460;28;20033;-69
2021/06/02 03:08:54;;;;;;;4.47;1.25;;;;;;;;;;5006839;28;20041;-68
2021/06/02 03:11:37;;;;;;;3.15;0.80;;;;;;;;;;5013108;28;20041;-68
2021/06/02 03:14:17;;;;;;;3.87;1.23;;;;;;;;;;5012337;28;20058;-68
2021/06/02 03:16:49;;;;;;;4.20;1.23;;;;;;;;;;5010565;28;20032;-68
2021/06/02 03:19:19;;;;;;;3.20;1.10;;;;;;;;;;5004857;28;20026;-68
2021/06/02 03:21:47;;;;;;;2.15;0.60;;;;;;;;;;5008835;28;20356;-69
2021/06/02 03:24:18;;;;;;;3.33;0.70;;;;;;;;;;5016750;28;20029;-69
2021/06/02 03:26:49;;;;;;;4.22;0.70;;;;;;;;;;5011298;28;20030;-69
2021/06/02 03:29:21;;;;;;;2.22;0.70;;;;;;;;;;5014291;28;20419;-69
2021/06/02 03:32:07;;;;;;;3.75;0.95;;;;;;;;;;5011009;28;20386;-69
2021/06/02 03:34:43;;;;;;;4.70;0.80;;;;;;;;;;5012154;28;20026;-68
2021/06/02 03:37:10;;;;;;;2.80;0.50;;;;;;;;;;5013663;28;20029;-69
2021/06/02 03:39:51;;;;;;;2.70;0.60;;;;;;;;;;5006604;28;20034;-69
2021/06/02 03:42:33;;;;;;;2.75;0.90;;;;;;;;;;5010336;28;20057;-69
2021/06/02 03:45:01;;;;;;;3.22;0.60;;;;;;;;;;5011350;28;20211;-69
2021/06/02 03:47:31;;;;;;;3.42;0.70;;;;;;;;;;5007806;28;20434;-69
2021/06/02 03:50:14;;;;;;;2.15;0.93;;;;;;;;;;5010398;28;20553;-69
2021/06/02 03:52:41;;;;;;;4.70;0.63;;;;;;;;;;5006563;28;20022;-69
2021/06/02 03:55:16;;;;;;;4.20;0.80;;;;;;;;;;5010873;28;20048;-69
2021/06/02 03:57:51;;;;;;;1.55;0.60;;;;;;;;;;5011851;28;20061;-70
2021/06/02 04:00:25;;;;;;;2.67;0.60;;;;;;;;;;5012086;28;20157;-69
2021/06/02 04:03:05;;;;;;;3.00;0.75;;;;;;;;;;5011182;28;20084;-69
2021/06/02 04:05:50;;;;;;;6.72;1.05;;;;;;;;;;5006716;28;20111;-69
2021/06/02 04:08:27;;;;;;;4.10;0.80;;;;;;;;;;5002249;28;20057;-69
2021/06/02 04:11:02;;;;;;;6.20;1.13;;;;;;;;;;5009120;28;20033;-70
2021/06/02 04:13:47;;;;;;;1.33;0.60;;;;;;;;;;5009091;28;20028;-69
2021/06/02 04:16:17;;;;;;;1.67;0.60;;;;;;;;;;5010372;28;20050;-70
2021/06/02 04:18:45;;;;;;;2.65;0.85;;;;;;;;;;5013450;28;20014;-69
2021/06/02 04:21:15;;;;;;;4.50;1.10;;;;;;;;;;5011943;28;20034;-69
2021/06/02 04:23:43;;;;;;;2.85;0.90;;;;;;;;;;5002935;28;20014;-70
2021/06/02 04:26:11;;;;;;;4.28;1.20;;;;;;;;;;5004232;28;20435;-70
2021/06/02 04:28:39;;;;;;;9.75;1.23;;;;;;;;;;5009047;28;20024;-70
2021/06/02 04:31:08;;;;;;;5.78;0.90;;;;;;;;;;5002449;28;20515;-70
2021/06/02 04:33:36;;;;;;;5.35;0.85;;;;;;;;;;5003702;28;20037;-70
2021/06/02 04:36:13;;;;;;;6.97;0.90;;;;;;;;;;5114781;27;20462;-69
2021/06/02 04:38:41;;;;;;;6.07;1.13;;;;;;;;;;5109511;28;20034;-68
2021/06/02 04:41:09;;;;;;;10.40;1.63;;;;;;;;;;5101072;28;20103;-68
2021/06/02 04:43:37;;;;;;;6.35;1.40;;;;;;;;;;5094183;28;20026;-68
2021/06/02 04:46:06;;;;;;;10.68;2.30;;;;;;;;;;5102066;28;20081;-68
2021/06/02 04:48:33;;;;;;;8.30;1.65;;;;;;;;;;5109699;28;20019;-68
2021/06/02 04:51:30;;;;;;;14.13;2.55;;;;;;;;;;5100531;28;20031;-69
2021/06/02 04:53:57;;;;;;;7.78;2.20;;;;;;;;;;5092462;28;20030;-68
2021/06/02 04:56:33;;;;;;;15.00;2.30;;;;;;;;;;5100369;28;20484;-69
2021/06/02 04:59:18;;;;;;;11.18;1.90;;;;;;;;;;5109023;28;20033;-68
2021/06/02 05:02:03;;;;;;;8.70;2.03;;;;;;;;;;5104299;28;20028;-68
2021/06/02 05:04:33;;;;;;;10.90;2.10;;;;;;;;;;5108627;28;20036;-68
2021/06/02 05:07:03;;;;;;;6.28;1.88;;;;;;;;;;5090835;28;20047;-68
2021/06/02 05:09:49;;;;;;;7.53;1.95;;;;;;;;;;5103276;28;20024;-68
2021/06/02 05:12:16;;;;;;;8.50;1.98;;;;;;;;;;5096513;28;20134;-68
2021/06/02 05:15:02;;;;;;;15.57;2.90;;;;;;;;;;5095198;28;20020;-69
2021/06/02 05:17:36;;;;;;;8.30;1.73;;;;;;;;;;5103193;28;20051;-68
2021/06/02 05:20:24;;;;;;;5.25;1.13;;;;;;;;;;5107119;28;20016;-69
2021/06/02 05:23:24;;;;;;;8.88;1.40;;;;;;;;;;5105401;28;20052;-67
2021/06/02 05:26:03;;;;;;;7.32;1.40;;;;;;;;;;5069846;28;20093;-68
2021/06/02 05:28:48;;;;;;;6.68;1.58;;;;;;;;;;5097387;28;20047;-67
2021/06/02 05:31:33;;;;;;;4.97;1.23;;;;;;;;;;5120692;27;21012;-67
2021/06/02 05:34:12;;;;;;;13.30;1.23;;;;;;;;;;5126836;27;20553;-67
2021/06/02 05:36:39;;;;;;;8.30;1.30;;;;;;;;;;5123255;27;20082;-66
2021/06/02 05:39:24;;;;;;;7.57;1.20;;;;;;;;;;5129260;28;20068;-66
2021/06/02 05:41:58;;;;;;;3.92;0.85;;;;;;;;;;5128871;28;20027;-67
2021/06/02 05:44:43;;;;;;;6.25;1.27;;;;;;;;;;5116327;27;20027;-67
2021/06/02 05:47:10;;;;;;;5.13;1.42;;;;;;;;;;5095942;27;20058;-68
2021/06/02 05:49:38;;;;;;;6.47;1.73;;;;;;;;;;5095856;28;20020;-69
2021/06/02 05:52:17;;;;;;;5.22;1.40;;;;;;;;;;5107822;28;20024;-68
2021/06/02 05:54:56;;;;;;;5.72;1.30;;;;;;;;;;5096087;27;20763;-69
2021/06/02 05:57:41;;;;;;;3.90;1.42;;;;;;;;;;5105186;27;20090;-69
2021/06/02 06:00:17;;;;;;;8.00;1.38;;;;;;;;;;5108866;28;20023;-69
2021/06/02 06:02:47;;;;;;;6.70;1.17;;;;;;;;;;5104405;28;20024;-69
2021/06/02 06:05:33;;;;;;;7.22;2.03;;;;;;;;;;5101070;28;20076;-69
2021/06/02 06:08:15;;;;;;;9.57;1.35;;;;;;;;;;5111123;28;20080;-69
2021/06/02 06:10:49;;;;;;;7.03;1.10;;;;;;;;;;5101818;28;20488;-69
2021/06/02 06:13:26;;;;;;;6.93;1.35;;;;;;;;;;5109215;28;20028;-69
2021/06/02 06:16:03;;;;;;;4.28;1.13;;;;;;;;;;5090778;28;20039;-68
2021/06/02 06:19:03;;;;;;;4.72;1.10;;;;;;;;;;5096914;28;20479;-68
2021/06/02 06:21:48;;;;;;;4.88;1.38;;;;;;;;;;5107488;27;20027;-68
2021/06/02 06:24:21;;;;;;;9.23;2.08;;;;;;;;;;5085653;27;20448;-68
2021/06/02 06:27:00;;;;;;;5.93;1.10;;;;;;;;;;5102494;27;20107;-68
2021/06/02 06:29:33;;;;;;;5.10;1.38;;;;;;;;;;5107443;27;22549;-68
2021/06/02 06:32:01;;;;;;;4.60;1.45;;;;;;;;;;5103749;27;20031;-68
2021/06/02 06:34:30;;;;;;;6.88;1.35;;;;;;;;;;5099536;27;20127;-69
2021/06/02 06:36:59;;;;;;;8.30;1.33;;;;;;;;;;5098025;28;20028;-67
2021/06/02 06:39:49;;;;;;;11.07;2.03;;;;;;;;;;5100281;27;20022;-67
2021/06/02 06:42:19;;;;;;;8.38;2.08;;;;;;;;;;5093211;28;20046;-67
2021/06/02 06:44:47;;;;;;;7.80;1.90;;;;;;;;;;5102189;27;20054;-68
2021/06/02 06:47:16;;;;;;;9.57;1.30;;;;;;;;;;5098823;28;20384;-68
2021/06/02 06:49:45;;;;;;;6.53;1.80;;;;;;;;;;5110165;27;20024;-68
2021/06/02 06:52:13;;;;;;;10.55;1.35;;;;;;;;;;5108420;28;20107;-68
2021/06/02 06:54:41;;;;;;;6.82;2.25;;;;;;;;;;5106134;28;20111;-68
2021/06/02 06:57:09;;;;;;;6.03;1.33;;;;;;;;;;5110284;28;20024;-68
2021/06/02 06:59:36;;;;;;;4.72;1.15;;;;;;;;;;5112101;28;20022;-68
2021/06/02 07:02:04;;;;;;;5.75;1.45;;;;;;;;;;5099080;28;20027;-68
2021/06/02 07:04:32;;;;;;;7.22;1.63;;;;;;;;;;5102490;28;20032;-68
2021/06/02 07:06:59;;;;;;;10.68;2.13;;;;;;;;;;5111629;28;20392;-68
2021/06/02 07:09:27;;;;;;;4.95;1.60;;;;;;;;;;5098066;28;20024;-68
2021/06/02 07:11:58;;;;;;;14.27;2.30;;;;;;;;;;5099211;27;20016;-67
2021/06/02 07:14:29;;;;;;;6.45;1.60;;;;;;;;;;5103992;27;20541;-67
2021/06/02 07:16:57;;;;;;;6.53;2.05;;;;;;;;;;5101487;28;20609;-67
2021/06/02 07:19:24;;;;;;;8.70;1.70;;;;;;;;;;5100245;28;20027;-67
2021/06/02 07:21:53;;;;;;;5.70;2.05;;;;;;;;;;5102194;27;20020;-68
2021/06/02 07:24:20;;;;;;;6.97;1.83;;;;;;;;;;5095482;28;20060;-67
2021/06/02 07:26:48;;;;;;;14.10;1.90;;;;;;;;;;5102073;28;20031;-67
2021/06/02 07:29:15;;;;;;;10.90;2.20;;;;;;;;;;5124658;27;20483;-67
2021/06/02 07:31:42;;;;;;;10.02;2.20;;;;;;;;;;5107362;27;20498;-67
2021/06/02 07:34:09;;;;;;;10.05;2.58;;;;;;;;;;5113014;28;20445;-69
2021/06/02 07:36:37;;;;;;;8.77;1.90;;;;;;;;;;5112216;27;20020;-67
2021/06/02 07:39:05;;;;;;;9.00;2.08;;;;;;;;;;5099372;28;20032;-69
2021/06/02 07:41:32;;;;;;;9.98;1.98;;;;;;;;;;5109976;28;20020;-69
2021/06/02 07:43:59;;;;;;;9.63;2.97;;;;;;;;;;5097687;28;20031;-69
2021/06/02 07:46:27;;;;;;;10.95;2.55;;;;;;;;;;5110597;28;20024;-69
2021/06/02 07:48:54;;;;;;;11.25;2.60;;;;;;;;;;5111798;28;20471;-69
2021/06/02 07:51:22;;;;;;;15.35;3.05;;;;;;;;;;5107068;28;20023;-69
2021/06/02 07:53:49;;;;;;;12.45;2.50;;;;;;;;;;5095053;28;20024;-67
2021/06/02 07:56:16;;;;;;;8.50;3.42;;;;;;;;;;5105575;27;20522;-69
2021/06/02 07:58:44;;;;;;;10.70;3.97;;;;;;;;;;5099365;28;20042;-69
2021/06/02 08:01:11;;;;;;;11.77;5.72;;;;;;;;;;5110988;27;20027;-67
2021/06/02 08:03:38;;;;;;;10.43;3.63;;;;;;;;;;5104305;28;20103;-67
2021/06/02 08:06:05;;;;;;;23.85;11.45;;;;;;;;;;5094710;28;20027;-67
2021/06/02 08:08:32;;;;;;;41.47;29.85;;;;;;;;;;5095874;27;20369;-68
2021/06/02 08:10:59;;;;;;;48.80;30.52;;;;;;;;;;5104057;28;20500;-68
2021/06/02 08:13:27;;;;;;;37.90;24.48;;;;;;;;;;5091919;28;20074;-67
2021/06/02 08:15:54;;;;;;;35.65;23.13;;;;;;;;;;5101427;28;20539;-67
2021/06/02 08:18:21;;;;;;;24.30;14.32;;;;;;;;;;5101102;28;20634;-68
2021/06/02 08:20:48;;;;;;;28.50;19.98;;;;;;;;;;5100215;28;20016;-68
2021/06/02 08:23:15;;;;;;;35.97;25.23;;;;;;;;;;5099776;28;20073;-68
2021/06/02 08:25:42;;;;;;;22.80;16.25;;;;;;;;;;5111208;28;20096;-68
2021/06/02 08:28:09;;;;;;;18.50;9.90;;;;;;;;;;5109533;28;20023;-68
2021/06/02 08:30:37;;;;;;;16.55;9.63;;;;;;;;;;5109139;28;20024;-68
2021/06/02 08:33:04;;;;;;;16.00;9.27;;;;;;;;;;5097551;28;20097;-68
2021/06/02 08:35:31;;;;;;;9.18;5.00;;;;;;;;;;5086006;28;20142;-68
2021/06/02 08:37:58;;;;;;;10.98;4.45;;;;;;;;;;5095224;28;20046;-68
2021/06/02 08:40:25;;;;;;;9.73;3.80;;;;;;;;;;5102514;28;20016;-68
2021/06/02 08:42:52;;;;;;;12.23;4.35;;;;;;;;;;5108138;28;20034;-68
2021/06/02 08:45:20;;;;;;;9.63;5.80;;;;;;;;;;5092326;28;20026;-68
2021/06/02 08:47:48;;;;;;;12.98;6.20;;;;;;;;;;5096878;28;20107;-68
2021/06/02 08:50:17;;;;;;;13.82;6.90;;;;;;;;;;5080340;28;20476;-69
2021/06/02 08:52:44;;;;;;;12.60;6.15;;;;;;;;;;5094141;28;20099;-69
2021/06/02 08:55:12;;;;;;;12.88;5.85;;;;;;;;;;5096505;28;20032;-68
2021/06/02 08:57:46;;;;;;;14.18;5.70;;;;;;;;;;5112222;28;20476;-70
2021/06/02 09:00:15;;;;;;;11.98;5.05;;;;;;;;;;5104293;28;20038;-67
2021/06/02 09:02:43;;;;;;;6.30;3.80;;;;;;;;;;5098557;28;20085;-69
2021/06/02 09:05:11;;;;;;;7.60;3.00;;;;;;;;;;5079150;28;20024;-67
2021/06/02 09:07:40;;;;;;;8.23;3.95;;;;;;;;;;5117272;28;20027;-69
2021/06/02 09:10:08;;;;;;;6.82;3.65;;;;;;;;;;5111217;28;20022;-69
2021/06/02 09:12:37;;;;;;;12.43;3.95;;;;;;;;;;5112264;28;20024;-69
2021/06/02 09:15:07;;;;;;;8.00;3.50;;;;;;;;;;5110325;28;20040;-69
2021/06/02 09:17:56;;;;;;;7.65;3.80;;;;;;;;;;5109163;28;20019;-69
2021/06/02 09:20:32;;;;;;;9.70;3.42;;;;;;;;;;5116137;28;20368;-69
2021/06/02 09:23:00;;;;;;;8.18;3.28;;;;;;;;;;5095347;28;20024;-68
2021/06/02 09:25:27;;;;;;;7.70;3.72;;;;;;;;;;5103679;28;20027;-69
2021/06/02 09:27:57;;;;;;;8.55;4.32;;;;;;;;;;5095238;28;20039;-69
2021/06/02 09:30:26;;;;;;;7.75;2.80;;;;;;;;;;5109240;27;20114;-69
2021/06/02 09:32:55;;;;;;;6.70;2.83;;;;;;;;;;5115153;28;20019;-69
2021/06/02 09:35:22;;;;;;;6.68;2.78;;;;;;;;;;5085924;27;20467;-69
2021/06/02 09:37:54;;;;;;;7.22;2.60;;;;;;;;;;5095910;27;20027;-67
2021/06/02 09:40:26;;;;;;;8.93;2.58;;;;;;;;;;5099166;28;20019;-69
2021/06/02 09:42:53;;;;;;;7.65;2.90;;;;;;;;;;5106389;27;20144;-69
2021/06/02 09:45:21;;;;;;;7.45;3.08;;;;;;;;;;5102224;28;20032;-67
2021/06/02 09:47:58;;;;;;;6.10;3.55;;;;;;;;;;5095941;28;20065;-68
2021/06/02 09:50:29;;;;;;;19.52;4.55;;;;;;;;;;5101367;27;20886;-69
2021/06/02 09:52:57;;;;;;;8.57;4.15;;;;;;;;;;5107962;27;20027;-69
2021/06/02 09:55:26;;;;;;;11.95;5.50;;;;;;;;;;5084892;28;20032;-69
2021/06/02 09:57:56;;;;;;;7.95;4.20;;;;;;;;;;5104148;27;20431;-69
2021/06/02 10:00:23;;;;;;;10.75;5.18;;;;;;;;;;5102054;27;20106;-69
2021/06/02 10:03:04;;;;;;;6.93;3.72;;;;;;;;;;5104127;28;20094;-68
2021/06/02 10:05:35;;;;;;;11.63;4.50;;;;;;;;;;5101376;28;20125;-68
2021/06/02 10:08:02;;;;;;;10.23;3.85;;;;;;;;;;5100139;28;20027;-68
2021/06/02 10:10:31;;;;;;;12.77;7.47;;;;;;;;;;5106334;28;20031;-66
2021/06/02 10:12:59;;;;;;;15.30;9.77;;;;;;;;;;5108515;27;20023;-66
2021/06/02 10:15:32;;;;;;;10.95;4.05;;;;;;;;;;5091772;27;20028;-67
2021/06/02 10:18:00;;;;;;;10.57;4.00;;;;;;;;;;5104468;28;20546;-68
2021/06/02 10:20:27;;;;;;;12.20;5.25;;;;;;;;;;5102491;28;20023;-69
2021/06/02 10:22:55;;;;;;;10.32;4.40;;;;;;;;;;5109559;28;20047;-68
2021/06/02 10:25:24;;;;;;;9.60;3.85;;;;;;;;;;5106972;28;20016;-68
2021/06/02 10:27:54;;;;;;;10.40;3.72;;;;;;;;;;5114510;28;20059;-67
2021/06/02 10:30:23;;;;;;;7.82;4.30;;;;;;;;;;5102453;27;20031;-68
2021/06/02 10:32:51;;;;;;;9.90;3.83;;;;;;;;;;5112986;28;20104;-67
2021/06/02 10:35:18;;;;;;;9.77;2.80;;;;;;;;;;5106797;27;20047;-66
2021/06/02 10:37:46;;;;;;;9.70;3.55;;;;;;;;;;5112887;28;20106;-67
2021/06/02 10:40:13;;;;;;;7.82;2.67;;;;;;;;;;5109112;27;20030;-68
2021/06/02 10:42:52;;;;;;;5.30;3.03;;;;;;;;;;5105293;27;20024;-67
2021/06/02 10:45:26;;;;;;;7.45;3.00;;;;;;;;;;5094798;27;20028;-69
2021/06/02 10:47:54;;;;;;;9.18;3.17;;;;;;;;;;5110146;28;20034;-68
2021/06/02 10:50:30;;;;;;;10.00;3.10;;;;;;;;;;5112735;27;20446;-66
2021/06/02 10:52:57;;;;;;;6.78;3.45;;;;;;;;;;5114345;28;20054;-66
2021/06/02 10:55:43;;;;;;;8.48;3.80;;;;;;;;;;5103531;27;20020;-66
2021/06/02 10:58:21;;;;;;;7.00;3.20;;;;;;;;;;5102495;27;20055;-66
2021/06/02 11:00:49;;;;;;;8.00;4.28;;;;;;;;;;5104517;27;20054;-67
2021/06/02 11:03:30;;;;;;;7.10;3.00;;;;;;;;;;5099589;28;20093;-68
2021/06/02 11:06:16;;;;;;;5.93;3.78;;;;;;;;;;5098363;27;20488;-68
2021/06/02 11:08:50;;;;;;;12.27;5.80;;;;;;;;;;5099791;28;20500;-68
2021/06/02 11:11:20;;;;;;;10.88;4.30;;;;;;;;;;5094210;27;20025;-67
2021/06/02 11:14:06;;;;;;;9.93;4.50;;;;;;;;;;5097361;27;20024;-68
2021/06/02 11:16:39;;;;;;;8.35;4.28;;;;;;;;;;5110224;27;20092;-67
2021/06/02 11:19:13;;;;;;;9.38;3.25;;;;;;;;;;5105161;27;20064;-67
2021/06/02 11:21:56;;;;;;;10.20;4.63;;;;;;;;;;5100230;27;20024;-68
2021/06/02 11:24:41;;;;;;;8.85;3.75;;;;;;;;;;5095244;27;20024;-68
2021/06/02 11:27:15;;;;;;;10.32;4.35;;;;;;;;;;5096317;28;20020;-67
2021/06/02 11:29:48;;;;;;;7.93;3.38;;;;;;;;;;5108350;28;20545;-67
2021/06/02 11:32:15;;;;;;;11.40;4.53;;;;;;;;;;5104975;27;20032;-68
2021/06/02 11:34:43;;;;;;;9.25;4.18;;;;;;;;;;5096954;28;20044;-68
2021/06/02 11:37:13;;;;;;;7.78;3.63;;;;;;;;;;5107815;27;20480;-67
2021/06/02 11:39:41;;;;;;;10.23;2.97;;;;;;;;;;5107902;27;20095;-67
2021/06/02 11:42:09;;;;;;;9.23;3.85;;;;;;;;;;5101472;27;21544;-67
2021/06/02 11:44:37;;;;;;;7.45;3.13;;;;;;;;;;5110969;28;20032;-67
2021/06/02 11:47:08;;;;;;;4.85;2.65;;;;;;;;;;5098630;28;20065;-67
2021/06/02 11:49:36;;;;;;;6.72;2.75;;;;;;;;;;5103808;27;20027;-67
2021/06/02 11:52:13;;;;;;;10.20;2.83;;;;;;;;;;5100542;27;20079;-68
2021/06/02 11:54:51;;;;;;;5.93;2.55;;;;;;;;;;5102289;28;20028;-67
2021/06/02 11:57:25;;;;;;;7.03;3.03;;;;;;;;;;5109944;27;20336;-68
2021/06/02 11:59:52;;;;;;;6.43;2.58;;;;;;;;;;5087373;28;20031;-67
2021/06/02 12:02:19;;;;;;;10.80;3.70;;;;;;;;;;5098715;28;20028;-67
2021/06/02 12:04:46;;;;;;;7.53;2.90;;;;;;;;;;5104639;27;20030;-68
2021/06/02 12:07:23;;;;;;;9.00;3.70;;;;;;;;;;5107770;28;20028;-68
2021/06/02 12:09:54;;;;;;;9.63;3.55;;;;;;;;;;5102887;27;20072;-67
2021/06/02 12:12:22;;;;;;;13.98;3.20;;;;;;;;;;5108249;28;20059;-68
2021/06/02 12:14:53;;;;;;;5.55;3.05;;;;;;;;;;5108217;28;20059;-68
2021/06/02 12:17:20;;;;;;;7.47;3.40;;;;;;;;;;5106033;28;20022;-68
2021/06/02 12:19:50;;;;;;;6.78;2.83;;;;;;;;;;5101284;28;20028;-68
2021/06/02 12:22:20;;;;;;;7.63;2.88;;;;;;;;;;5109712;27;20020;-68
2021/06/02 12:25:06;;;;;;;7.85;3.10;;;;;;;;;;5107676;27;20023;-68
2021/06/02 12:27:50;;;;;;;12.63;2.95;;;;;;;;;;5098108;28;20573;-68
2021/06/02 12:30:19;;;;;;;5.85;2.72;;;;;;;;;;5100812;28;20019;-68
2021/06/02 12:32:46;;;;;;;8.32;2.67;;;;;;;;;;5109538;28;20020;-66
2021/06/02 12:35:25;;;;;;;5.57;2.88;;;;;;;;;;5105902;28;20123;-66
2021/06/02 12:38:13;;;;;;;7.22;2.47;;;;;;;;;;5105696;28;20018;-67
2021/06/02 12:40:41;;;;;;;6.47;2.45;;;;;;;;;;5102078;28;20020;-67
2021/06/02 12:43:12;;;;;;;7.97;3.20;;;;;;;;;;5106632;28;20031;-67
2021/06/02 12:45:40;;;;;;;9.38;3.75;;;;;;;;;;5105141;28;20523;-67
2021/06/02 12:48:08;;;;;;;10.57;4.60;;;;;;;;;;5107952;28;20028;-67
2021/06/02 12:50:40;;;;;;;7.65;4.32;;;;;;;;;;5107914;28;20030;-66
2021/06/02 12:53:08;;;;;;;11.60;4.63;;;;;;;;;;5107110;28;20031;-66
2021/06/02 12:55:42;;;;;;;8.85;3.75;;;;;;;;;;5110865;28;20487;-67
2021/06/02 12:58:13;;;;;;;13.35;5.28;;;;;;;;;;5115489;27;20070;-66
2021/06/02 13:00:42;;;;;;;8.98;4.60;;;;;;;;;;5116314;28;20015;-67
2021/06/02 13:03:10;;;;;;;14.45;5.20;;;;;;;;;;5113843;28;20629;-66
2021/06/02 13:05:37;;;;;;;11.15;4.25;;;;;;;;;;5100322;27;20119;-66
2021/06/02 13:08:08;;;;;;;12.90;4.65;;;;;;;;;;5121457;27;20023;-66
2021/06/02 13:10:35;;;;;;;15.35;5.05;;;;;;;;;;5106559;27;20020;-66
2021/06/02 13:13:04;;;;;;;15.98;5.35;;;;;;;;;;5107161;27;20115;-68
2021/06/02 13:15:33;;;;;;;8.27;4.97;;;;;;;;;;5099403;27;20032;-69
2021/06/02 13:18:00;;;;;;;10.68;4.78;;;;;;;;;;5107782;27;20031;-67
2021/06/02 13:20:31;;;;;;;16.55;5.22;;;;;;;;;;5113590;27;20103;-66
2021/06/02 13:23:07;;;;;;;11.20;5.85;;;;;;;;;;5099130;28;20016;-67
2021/06/02 13:25:35;;;;;;;10.95;4.70;;;;;;;;;;5103761;27;20019;-67
2021/06/02 13:28:02;;;;;;;10.00;5.18;;;;;;;;;;5104281;27;20621;-67
2021/06/02 13:30:43;;;;;;;12.88;5.63;;;;;;;;;;5106535;28;20063;-67
2021/06/02 13:33:11;;;;;;;13.52;6.25;;;;;;;;;;5096366;28;20027;-66
2021/06/02 13:35:39;;;;;;;13.60;6.00;;;;;;;;;;5106905;27;20399;-67
2021/06/02 13:38:07;;;;;;;12.38;5.65;;;;;;;;;;5106621;27;20470;-67
2021/06/02 13:40:35;;;;;;;9.77;4.85;;;;;;;;;;5114503;27;20094;-67
2021/06/02 13:43:16;;;;;;;10.50;5.75;;;;;;;;;;5102570;28;20032;-67
2021/06/02 13:45:51;;;;;;;13.20;5.93;;;;;;;;;;5112837;28;20541;-67
2021/06/02 13:48:22;;;;;;;10.95;5.07;;;;;;;;;;5095671;28;20506;-67
2021/06/02 13:50:50;;;;;;;15.77;5.90;;;;;;;;;;5113052;27;20020;-67
2021/06/02 13:53:17;;;;;;;13.43;5.85;;;;;;;;;;5098206;28;20019;-67
2021/06/02 13:55:55;;;;;;;12.15;5.55;;;;;;;;;;5109626;27;20491;-67
2021/06/02 13:58:22;;;;;;;9.20;5.28;;;;;;;;;;5111530;28;20024;-67
2021/06/02 14:00:49;;;;;;;14.88;5.38;;;;;;;;;;5109274;27;20040;-67
2021/06/02 14:03:16;;;;;;;9.05;4.60;;;;;;;;;;5112718;28;20019;-67
2021/06/02 14:05:43;;;;;;;10.68;4.78;;;;;;;;;;5112534;28;20429;-67
2021/06/02 14:08:10;;;;;;;13.38;4.22;;;;;;;;;;5106596;28;20032;-67
2021/06/02 14:10:37;;;;;;;13.82;4.93;;;;;;;;;;5098924;28;20055;-67
2021/06/02 14:13:04;;;;;;;13.55;5.80;;;;;;;;;;5108363;27;20073;-67
2021/06/02 14:15:32;;;;;;;10.10;5.55;;;;;;;;;;5094928;28;20024;-67
2021/06/02 14:17:59;;;;;;;13.15;5.07;;;;;;;;;;5099713;27;20024;-67
2021/06/02 14:20:26;;;;;;;13.48;4.88;;;;;;;;;;5105656;28;20016;-67
2021/06/02 14:22:53;;;;;;;8.00;4.45;;;;;;;;;;5118843;27;20109;-67
2021/06/02 14:25:21;;;;;;;13.57;5.50;;;;;;;;;;5111995;28;20031;-67
2021/06/02 14:27:48;;;;;;;8.60;4.68;;;;;;;;;;5110008;28;20153;-67
2021/06/02 14:30:16;;;;;;;11.27;5.13;;;;;;;;;;5115407;27;20051;-67
2021/06/02 14:32:43;;;;;;;12.10;6.10;;;;;;;;;;5100682;27;20437;-67
2021/06/02 14:35:11;;;;;;;16.20;4.95;;;;;;;;;;5110544;27;20043;-67
2021/06/02 14:37:42;;;;;;;11.82;4.50;;;;;;;;;;5105991;28;20023;-67
2021/06/02 14:40:10;;;;;;;14.38;4.85;;;;;;;;;;5107995;27;20016;-67
2021/06/02 14:42:37;;;;;;;8.85;5.03;;;;;;;;;;5129010;27;20102;-67
2021/06/02 14:45:05;;;;;;;16.27;6.80;;;;;;;;;;5094856;27;20495;-67
2021/06/02 14:47:33;;;;;;;13.48;6.22;;;;;;;;;;5104838;27;20032;-67
2021/06/02 14:50:00;;;;;;;12.18;5.57;;;;;;;;;;5114892;27;20024;-66
2021/06/02 14:52:29;;;;;;;12.18;5.10;;;;;;;;;;5106785;28;20050;-66
2021/06/02 14:54:56;;;;;;;13.98;6.95;;;;;;;;;;5101014;28;20456;-66
2021/06/02 14:57:24;;;;;;;14.55;5.97;;;;;;;;;;5102557;28;20016;-66
2021/06/02 14:59:51;;;;;;;17.45;6.60;;;;;;;;;;5113374;27;20024;-67
2021/06/02 15:02:18;;;;;;;15.77;6.53;;;;;;;;;;5100958;27;20050;-68
2021/06/02 15:04:45;;;;;;;11.68;5.40;;;;;;;;;;5110536;27;20345;-68
2021/06/02 15:07:12;;;;;;;13.40;6.32;;;;;;;;;;5110175;28;20032;-67